• Join FlightAware (Why Join?)
  • Login
  • US Flag 
12:00PM EDT


 

Airport Tracker/Info


-or-


 

Live Flight TrackerFlight Track Log ✈ THY5 ✈ 18-Jul-2013 ✈ LTBA / IST - KORD

Flight Track Log - Related Links

Times and Time Zones

All times are in EDT time to prevent confusion due to time zone crossing. See the THY5 flight status page for this flight to view local times or setup timezone preferences in your user account.

Time Position Orientation Groundspeed Altitude Reporting Facility
EDT Latitude Longitude Course Direction KTS MPH feet Rate Location/Type
06:38AM 40.9810 28.8140 359° North 7 8  Level FlightAware
06:42AM 40.9830 28.8120 323° Northwest 21 24 120 Level FlightAware
06:42AM 40.9800 28.8120 180° South 16 18 180 Level FlightAware
06:45AM 41.1827 28.5343 312° West  Level FlightAware Approximate
06:46AM 41.2649 28.4190 315° West  Level FlightAware Approximate
06:47AM 41.3509 28.3084 316° Northwest  Level FlightAware Approximate
06:48AM 41.4373 28.1982 316° Northwest  Level FlightAware Approximate
06:49AM 41.5238 28.0880 316° Northwest  Level FlightAware Approximate
06:50AM 41.6108 27.9783 317° Northwest  Level FlightAware Approximate
06:51AM 41.6981 27.8690 317° Northwest  Level FlightAware Approximate
06:52AM 41.7865 27.7611 318° Northwest  Level FlightAware Approximate
06:53AM 41.8733 27.6508 314° West  Level FlightAware Approximate
06:54AM 41.9561 27.5350 314° West  Level FlightAware Approximate
06:55AM 42.0393 27.4193 315° West  Level FlightAware Approximate
06:55AM 41.0350 28.8070 357° North 149 171 2,400  Level FlightAware
06:55AM 41.0520 28.8070 360° North 149 171 2,400 780 Level FlightAware
06:56AM 41.0910 28.7820 334° Northwest 203 234 3,400 960 Climbing FlightAware
06:57AM 41.1060 28.7590 311° West 222 255 3,600 960 Climbing FlightAware
06:57AM 41.1450 28.6960 309° West 271 312 4,600 1,620 Climbing FlightAware
06:58AM 41.1690 28.6600 312° West 272 313 5,800 2,100 Climbing FlightAware
06:59AM 41.2040 28.6070 311° West 281 323 7,100 1,980 Climbing FlightAware
06:59AM 41.2320 28.5650 312° West 289 333 8,300 2,160 Climbing FlightAware
07:00AM 41.2540 28.5320 312° West 292 336 9,300 1,740 Climbing FlightAware
07:01AM 41.3100 28.4420 310° West 326 375 10,800 1,320 Climbing FlightAware
07:01AM 41.3530 28.3750 311° West 355 409 11,500 1,380 Climbing FlightAware
07:02AM 41.3910 28.3130 309° West 362 417 12,700 1,860 Climbing FlightAware
07:03AM 41.4500 28.2190 310° West 379 436 14,300 1,800 Climbing FlightAware
07:03AM 41.4870 28.1600 310° West 381 438 15,300 1,800 Climbing FlightAware
07:04AM 41.5330 28.0870 310° West 385 443 16,600 1,800 Climbing FlightAware
07:05AM 41.5900 27.9940 309° West 394 453 17,900 1,620 Climbing FlightAware
07:05AM 41.6410 27.9110 309° West 406 467 19,100 1,560 Climbing FlightAware
07:07AM 41.7230 27.7780 310° West 412 474 20,900 1,440 Climbing FlightAware
07:07AM 41.7750 27.6940 310° West 415 478 21,800 1,320 Climbing FlightAware
07:08AM 41.8140 27.6310 310° West 419 482 22,600 1,320 Climbing FlightAware
07:09AM 41.9200 27.4560 309° West 431 496 24,400 1,200 Climbing FlightAware
07:10AM 41.9840 27.3520 310° West 437 503 25,400 960 Climbing FlightAware
07:11AM 42.0240 27.2860 309° West 437 503 25,900 1,080 Climbing FlightAware
07:12AM 42.1340 27.1210 312° West 444 511 27,400 1,080 Climbing FlightAware
07:13AM 42.1940 27.0380 314° West 449 517 28,000 900 Climbing FlightAware
07:13AM 42.2520 26.9560 314° West 449 517 28,700 960 Climbing FlightAware
07:14AM 42.3360 26.8390 314° West 445 512 29,600 900 Climbing FlightAware
07:15AM 42.3880 26.7660 314° West 447 514 30,100 840 Climbing FlightAware
07:16AM 42.4390 26.6930 313° West 449 517 30,700 960 Climbing FlightAware
07:16AM 42.5050 26.5990 314° West 448 516 31,400 900 Climbing FlightAware
07:17AM 42.5940 26.4740 314° West 444 511 32,300 900 Climbing FlightAware
07:18AM 42.6440 26.4010 313° West 437 503 32,900 960 Climbing FlightAware
07:19AM 42.7100 26.3070 314° West 432 497 33,700 720 Climbing FlightAware
07:19AM 42.7640 26.2300 314° West 425 489 34,000 60 Climbing FlightAware
07:22AM 42.9557 25.9748 314° West  Level Estimated
07:22AM 42.9540 25.9530 314° West 435 501 34,000  Level FlightAware
07:24AM 43.1230 25.7090 314° West 435 501 34,000  Level FlightAware
07:25AM 43.1930 25.6050 313° West 435 501 34,000  Level FlightAware
07:25AM 43.2460 25.5280 313° West 435 501 34,000  Level FlightAware
07:26AM 43.3220 25.4150 313° West 435 501 34,000  Level FlightAware
07:27AM 43.3720 25.3410 313° West 435 501 34,000  Level FlightAware
07:27AM 43.4220 25.2670 313° West 435 501 34,000  Level FlightAware
07:28AM 43.4840 25.1750 313° West 436 502 34,000  Level FlightAware
07:29AM 43.5380 25.0930 312° West 435 501 34,000  Level FlightAware
07:29AM 43.6010 24.9990 313° West 435 501 34,000  Level FlightAware
07:30AM 43.6490 24.9260 312° West 436 502 34,000  Level FlightAware
07:31AM 43.7130 24.8250 311° West 436 502 34,000  Level FlightAware
07:32AM 43.7660 24.7420 311° West 437 503 34,000  Level FlightAware
07:32AM 43.8150 24.6660 312° West 438 504 34,000  Level FlightAware
07:33AM 43.8670 24.5840 311° West 437 503 34,000  Level FlightAware
07:34AM 43.9220 24.4970 311° West 436 502 34,000  Level FlightAware
07:34AM 43.9730 24.4170 312° West 436 502 34,000  Level FlightAware
07:35AM 44.0330 24.3210 311° West 436 502 34,000  Level FlightAware
07:36AM 44.0930 24.2260 311° West 437 503 34,000  Level FlightAware
07:36AM 44.1460 24.1400 311° West 437 503 34,000  Level FlightAware
07:37AM 44.2070 24.0420 311° West 438 504 34,000  Level FlightAware
07:38AM 44.2590 23.9590 311° West 439 505 34,000  Level FlightAware
07:38AM 44.3120 23.8730 311° West 439 505 34,000  Level FlightAware
07:39AM 44.3670 23.7840 311° West 439 505 34,000  Level FlightAware
07:41AM 44.4650 23.6220 310° West 438 504 34,000  Level FlightAware
07:43AM 44.6420 23.3340 311° West 439 505 34,000  Level FlightAware
07:44AM 44.7230 23.2010 311° West 440 506 34,000  Level FlightAware
07:44AM 44.7800 23.1060 310° West 439 505 34,000  Level FlightAware
07:45AM 44.8320 23.0200 310° West 439 505 34,000  Level FlightAware
07:46AM 44.8910 22.9210 310° West 440 506 34,000  Level FlightAware
07:46AM 44.9340 22.8490 310° West 440 506 34,000  Level FlightAware
07:47AM 44.9910 22.7540 310° West 442 509 34,000  Level FlightAware
07:48AM 45.0420 22.6670 310° West 442 509 34,000  Level FlightAware
07:49AM 45.1210 22.5340 310° West 440 506 34,000  Level FlightAware
07:49AM 45.1760 22.4400 310° West 439 505 34,000  Level FlightAware
07:50AM 45.2220 22.3610 310° West 438 504 34,000  Level FlightAware
07:51AM 45.2740 22.2730 310° West 439 505 34,000  Level FlightAware
07:51AM 45.3270 22.1830 310° West 440 506 34,000  Level FlightAware
07:52AM 45.3940 22.0680 310° West 439 505 34,000  Level FlightAware
07:53AM 45.4460 21.9770 309° West 439 505 34,000  Level FlightAware
07:54AM 45.5050 21.8750 310° West 439 505 34,000  Level FlightAware
07:54AM 45.5650 21.7710 310° West 439 505 34,000  Level FlightAware
07:55AM 45.6170 21.6800 309° West 439 505 34,000  Level FlightAware
07:56AM 45.6770 21.5760 310° West 440 506 34,000  Level FlightAware
07:57AM 45.7260 21.4900 309° West 441 507 34,000  Level FlightAware
07:57AM 45.7800 21.3940 309° West 441 507 34,000  Level FlightAware
07:58AM 45.8330 21.3010 309° West 442 509 34,000  Level FlightAware
07:59AM 45.8850 21.2070 308° West 443 510 34,000  Level FlightAware
08:01AM 46.0447 20.9542 312° West  Level Estimated
08:02AM 46.1264 20.8240 312° West  Level Estimated
08:02AM 46.1280 20.7730 312° West 442 509 34,000  Level FlightAware
08:03AM 46.1730 20.6900 308° West 443 510 34,000  Level FlightAware
08:03AM 46.2500 20.5320 305° West 443 510 34,000  Level FlightAware
08:04AM 46.3220 20.3870 306° West 444 511 34,000  Level FlightAware
08:05AM 46.3700 20.2870 305° West 446 513 34,000  Level FlightAware
08:06AM 46.4160 20.1920 305° West 445 512 34,000  Level FlightAware
08:07AM 46.4870 20.0460 305° West 447 514 34,000  Level FlightAware
08:07AM 46.5350 19.9470 305° West 447 514 34,000  Level FlightAware
08:08AM 46.5820 19.8490 305° West 447 514 34,000  Level FlightAware
08:09AM 46.6420 19.7230 305° West 447 514 34,000  Level FlightAware
08:10AM 46.6940 19.6140 305° West 441 507 34,000  Level FlightAware
08:10AM 46.7410 19.5160 305° West 442 509 34,000  Level FlightAware
08:11AM 46.7790 19.4360 305° West 442 509 34,000  Level FlightAware
08:12AM 46.8360 19.3140 304° West 442 509 34,000  Level FlightAware
08:13AM 46.8990 19.1800 305° West 444 511 34,000  Level FlightAware
08:13AM 46.9460 19.0800 305° West 446 513 34,000  Level FlightAware
08:14AM 46.9990 18.9660 304° West 446 513 34,000  Level FlightAware
08:15AM 47.0460 18.8650 304° West 447 514 34,000  Level FlightAware
08:15AM 47.0980 18.7530 304° West 450 518 34,000  Level FlightAware
08:16AM 47.1440 18.6530 304° West 450 518 34,000  Level FlightAware
08:17AM 47.1850 18.5620 304° West 450 518 34,000  Level FlightAware
08:17AM 47.2370 18.4500 304° West 451 519 34,000  Level FlightAware
08:18AM 47.2860 18.3410 304° West 452 520 34,000  Level FlightAware
08:19AM 47.3400 18.2210 304° West 452 520 34,000  Level FlightAware
08:20AM 47.4230 18.0380 304° West 452 520 34,000  Level FlightAware
08:21AM 47.5030 17.8590 304° West 454 522 34,000  Level FlightAware
08:22AM 47.5500 17.7540 304° West 454 522 34,000  Level FlightAware
08:23AM 47.6010 17.6390 303° West 455 524 34,000  Level FlightAware
08:24AM 47.6760 17.4680 303° West 451 519 34,000  Level FlightAware
08:25AM 47.7460 17.3090 303° West 455 524 34,000  Level FlightAware
08:26AM 47.8060 17.1720 303° West 455 524 34,000  Level FlightAware
08:26AM 47.8480 17.0500 297° West 453 521 34,000  Level FlightAware
08:27AM 47.8760 16.9570 294° West 453 521 34,000  Level FlightAware
08:28AM 47.9140 16.8300 294° West 454 522 34,000  Level FlightAware
08:28AM 47.9440 16.7300 294° West 455 524 34,000  Level FlightAware
08:29AM 47.9780 16.6170 294° West 456 525 34,000  Level FlightAware
08:30AM 48.0130 16.4980 294° West 456 525 34,000  Level FlightAware
08:30AM 48.0570 16.3480 294° West 457 526 34,000  Level FlightAware
08:31AM 48.0840 16.2550 294° West 456 525 34,000  Level FlightAware
08:32AM 48.1220 16.1250 294° West 455 524 34,000  Level FlightAware
08:32AM 48.1540 16.0120 293° West 455 524 34,000  Level FlightAware
08:33AM 48.1850 15.9050 294° West 455 524 34,000  Level FlightAware
08:34AM 48.2230 15.7740 294° West 455 524 34,000  Level FlightAware
08:34AM 48.2580 15.6490 293° West 456 525 34,000  Level FlightAware
08:35AM 48.2940 15.5250 294° West 455 524 34,000  Level FlightAware
08:36AM 48.3270 15.4070 293° West 454 522 34,000  Level FlightAware
08:37AM 48.3630 15.2770 293° West 454 522 34,000  Level FlightAware
08:37AM 48.3920 15.1740 293° West 455 524 34,000  Level FlightAware
08:38AM 48.4250 15.0570 293° West 456 525 34,000  Level FlightAware
08:39AM 48.4580 14.9360 292° West 456 525 34,000  Level FlightAware
08:39AM 48.4860 14.8330 292° West 458 527 34,000  Level FlightAware
08:41AM 48.5410 14.6330 293° West 460 529 34,000  Level FlightAware
08:42AM 48.6030 14.4020 292° West 462 532 34,000  Level FlightAware
08:42AM 48.6350 14.2860 293° West 462 532 34,000  Level FlightAware
08:45AM 48.8030 13.9541 308° West  Level Estimated
08:45AM 48.7340 13.9120 308° West 462 532 34,000  Level FlightAware
08:45AM 48.7780 13.7460 292° West 464 534 34,000  Level FlightAware
08:46AM 48.8170 13.6310 297° West 466 536 34,000  Level FlightAware
08:47AM 48.8650 13.5280 305° West 466 536 34,000  Level FlightAware
08:47AM 48.9290 13.4100 310° West 467 537 34,000  Level FlightAware
08:48AM 48.9860 13.3020 309° West 467 537 34,000  Level FlightAware
08:49AM 49.0420 13.1950 309° West 467 537 34,000  Level FlightAware
08:49AM 49.0990 13.0830 308° West 465 535 34,000  Level FlightAware
08:50AM 49.1490 12.9860 308° West 464 534 34,000  Level FlightAware
08:51AM 49.2030 12.8800 308° West 465 535 34,000  Level FlightAware
08:52AM 49.2620 12.7660 308° West 466 536 34,000  Level FlightAware
08:52AM 49.3240 12.6450 308° West 460 529 34,000  Level FlightAware
08:53AM 49.3750 12.5440 308° West 460 529 34,000  Level FlightAware
08:54AM 49.4290 12.4370 308° West 461 531 34,000  Level FlightAware
08:54AM 49.4780 12.3400 308° West 460 529 34,000  Level FlightAware
08:55AM 49.5400 12.2160 308° West 460 529 34,000  Level FlightAware
08:56AM 49.5920 12.1100 307° West 460 529 34,000  Level FlightAware
08:56AM 49.6470 12.0000 308° West 459 528 34,000  Level FlightAware
08:57AM 49.7020 11.8880 307° West 460 529 34,000  Level FlightAware
08:58AM 49.7560 11.7790 308° West 462 532 34,000  Level FlightAware
08:58AM 49.8020 11.6840 307° West 461 531 34,000  Level FlightAware
08:59AM 49.8600 11.5660 307° West 465 535 34,000  Level FlightAware
09:01AM 49.9870 11.3060 307° West 467 537 34,000  Level FlightAware
09:02AM 50.0600 11.1520 306° West 463 533 34,000  Level FlightAware
09:02AM 50.1170 11.0330 307° West 462 532 34,000  Level FlightAware
09:03AM 50.1610 10.9410 307° West 460 529 34,000  Level FlightAware
09:05AM 50.2970 10.6530 307° West 460 529 34,000  Level FlightAware
09:06AM 50.3510 10.5400 307° West 460 529 34,000  Level FlightAware
09:07AM 50.4350 10.3590 306° West 457 526 34,000  Level FlightAware
09:07AM 50.4900 10.2400 306° West 453 521 34,000  Level FlightAware
09:08AM 50.5430 10.1270 306° West 455 524 34,000  Level FlightAware
09:09AM 50.5950 10.0140 306° West 456 525 34,000  Level FlightAware
09:09AM 50.6450 9.9050 306° West 455 524 34,000  Level FlightAware
09:10AM 50.6920 9.8020 306° West 455 524 34,000  Level FlightAware
09:11AM 50.7560 9.6620 306° West 455 524 34,000  Level FlightAware
09:12AM 50.8280 9.5020 306° West 455 524 34,000  Level FlightAware
09:13AM 50.8760 9.3950 305° West 455 524 34,000  Level FlightAware
09:13AM 50.9310 9.2720 305° West 453 521 34,000  Level FlightAware
09:14AM 50.9840 9.1530 305° West 454 522 34,000  Level FlightAware
09:15AM 51.0270 9.0560 305° West 454 522 34,000  Level FlightAware
09:15AM 51.0790 8.9390 305° West 455 524 34,000  Level FlightAware
09:16AM 51.1270 8.8300 305° West 456 525 34,000  Level FlightAware
09:17AM 51.1710 8.7230 303° West 454 522 34,000  Level FlightAware
09:17AM 51.2140 8.6130 302° West 453 521 34,000  Level FlightAware
09:18AM 51.2620 8.4880 302° West 458 527 34,000  Level FlightAware
09:19AM 51.3050 8.3800 303° West 461 531 34,000  Level FlightAware
09:20AM 51.3580 8.2420 302° West 464 534 34,000  Level FlightAware
09:20AM 51.4020 8.1280 302° West 465 535 34,000  Level FlightAware
09:21AM 51.4510 8.0020 302° West 465 535 34,000  Level FlightAware
09:22AM 51.4990 7.8770 302° West 466 536 34,000  Level FlightAware
09:22AM 51.5390 7.7720 302° West 468 539 34,000  Level FlightAware
09:23AM 51.5830 7.6560 301° West 470 541 34,000  Level FlightAware
09:24AM 51.6330 7.5250 302° West 471 542 34,000  Level FlightAware
09:24AM 51.6790 7.4040 302° West 471 542 34,000  Level FlightAware
09:25AM 51.7290 7.2710 301° West 471 542 34,000  Level FlightAware
09:26AM 51.7720 7.1540 301° West 473 544 34,000  Level FlightAware
09:26AM 51.8220 7.0210 301° West 473 544 34,000  Level FlightAware
09:27AM 51.8580 6.9240 301° West 474 545 34,000  Level FlightAware
09:28AM 51.9090 6.7840 301° West 477 549 34,000  Level FlightAware
09:28AM 51.9570 6.6530 301° West 479 551 34,000  Level FlightAware
09:29AM 52.0010 6.5200 298° West 483 556 34,000  Level FlightAware
09:30AM 52.0420 6.3920 298° West 485 558 34,000  Level FlightAware
09:30AM 52.0840 6.2610 298° West 486 559 34,000  Level FlightAware
09:31AM 52.1310 6.1150 298° West 487 560 34,000  Level FlightAware
09:32AM 52.1740 5.9830 298° West 489 563 34,000  Level FlightAware
09:33AM 52.2190 5.8400 297° West 490 564 34,000  Level FlightAware
09:33AM 52.2580 5.7170 297° West 491 565 34,000  Level FlightAware
09:34AM 52.3030 5.5720 297° West 491 565 34,000  Level FlightAware
09:35AM 52.3470 5.4320 297° West 492 566 34,000  Level FlightAware
09:35AM 52.3805 5.3332 297° West 470 541 34,000  Level FlightAware UK
09:35AM 52.3900 5.2940 297° West 491 565 34,000  Level FlightAware
09:36AM 52.4340 5.1490 297° West 490 564 34,000  Level FlightAware
09:37AM 52.4760 5.0150 297° West 488 562 34,000  Level FlightAware
09:37AM 52.5170 4.8780 296° West 487 560 34,000  Level FlightAware
09:38AM 52.5590 4.7390 296° West 487 560 34,000  Level FlightAware
09:39AM 52.6030 4.5950 297° West 485 558 34,000  Level FlightAware
09:40AM 52.6420 4.4660 297° West 483 556 34,000  Level FlightAware
09:40AM 52.6860 4.3190 296° West 483 556 34,000  Level FlightAware
09:41AM 52.7250 4.1850 296° West 480 552 34,000  Level FlightAware
09:41AM 52.7520 4.0930 296° West 480 552 34,000  Level FlightAware
09:42AM 52.7930 3.9560 296° West 479 551 34,000  Level FlightAware
09:43AM 52.8310 3.8250 296° West 477 549 34,000  Level FlightAware
09:43AM 52.8701 3.6912 296° West 470 541 34,000  Level FlightAware UK
09:43AM 52.8680 3.6970 296° West 477 549 34,000  Level FlightAware
09:44AM 52.8985 3.5928 296° West 470 541 34,000  Level FlightAware UK
09:44AM 52.9080 3.5580 296° West 477 549 34,000  Level FlightAware
09:45AM 52.9382 3.4555 296° West 468 539 34,000  Level FlightAware UK
09:45AM 52.9440 3.4340 296° West 475 547 34,000  Level FlightAware
09:46AM 52.9870 3.2820 295° West 476 548 34,000  Level FlightAware
09:46AM 53.0230 3.1550 295° West 477 549 34,000  Level FlightAware
09:47AM 53.0580 3.0300 295° West 478 550 34,000  Level FlightAware
09:48AM 53.1040 2.8660 295° West 477 549 34,000  Level FlightAware
09:48AM 53.1420 2.7300 295° West 476 548 34,000  Level FlightAware
09:48AM 53.1445 2.7213 295° West 470 541 34,000  Level FlightAware UK
09:49AM 53.1775 2.6026 295° West 470 541 34,000  Level FlightAware UK
09:49AM 53.1770 2.6020 295° West 476 548 34,000 120 Level FlightAware
09:50AM 53.2120 2.4490 291° West 479 551 34,100 360 Climbing FlightAware
09:50AM 53.2360 2.2890 284° West 482 555 34,600 600 Climbing FlightAware
09:51AM 53.2560 2.1575 284° West 470 541 34,900 540 Climbing FlightAware UK
09:51AM 53.2580 2.1410 284° West 481 554 35,000 660 Climbing FlightAware
09:52AM 53.2751 2.0279 284° West 470 541 35,300 540 Climbing FlightAware UK
09:52AM 53.2813 1.9822 284° West 481 554 35,400 540 Climbing FlightAware ADS-B
09:52AM 53.2969 1.8729 283° West 482 555 35,700 540 Climbing FlightAware ADS-B
09:53AM 53.3133 1.7575 283° West 481 554 36,000 240 Climbing FlightAware ADS-B
09:53AM 53.3322 1.6237 283° West 480 552 36,000  Level FlightAware ADS-B
09:54AM 53.3512 1.4867 283° West 479 551 36,000  Level FlightAware ADS-B
09:55AM 53.3663 1.3797 283° West 468 539 36,000  Level FlightAware UK
09:55AM 53.3660 1.3810 283° West 479 551 36,000  Level FlightAware
09:55AM 53.3710 1.3431 282° West 479 551 36,000  Level FlightAware ADS-B
09:55AM 53.3872 1.2247 283° West 479 551 36,000  Level FlightAware ADS-B
09:56AM 53.4060 1.0880 283° West 478 550 36,000  Level FlightAware
09:56AM 53.4189 0.9907 283° West 479 551 36,000  Level FlightAware ADS-B
09:57AM 53.4364 0.8614 283° West 468 539 36,000  Level FlightAware UK
09:57AM 53.4492 0.7632 283° West 479 551 36,000  Level FlightAware ADS-B
09:58AM 53.4660 0.6350 282° West 476 548 36,000  Level FlightAware ADS-B
09:59AM 53.4812 0.5185 282° West 475 547 36,000  Level FlightAware ADS-B
09:59AM 53.4964 0.4015 282° West 474 545 36,000  Level FlightAware ADS-B
10:00AM 53.5109 0.2892 282° West 473 544 36,000  Level FlightAware ADS-B
10:00AM 53.5245 0.1815 282° West 473 544 36,000  Level FlightAware ADS-B
10:01AM 53.5381 0.0737 282° West 473 544 36,000  Level FlightAware ADS-B
10:01AM 53.5516 -0.0343 282° West 473 544 36,000  Level FlightAware ADS-B
10:02AM 53.5652 -0.1438 282° West 474 545 36,000  Level FlightAware ADS-B
10:03AM 53.5903 -0.3473 282° West 475 547 36,000  Level FlightAware ADS-B
10:03AM 53.6107 -0.5148 282° West 468 539 36,000  Level FlightAware UK
10:04AM 53.6180 -0.5760 282° West 475 547 36,000  Level FlightAware ADS-B
10:04AM 53.6310 -0.6852 281° West 474 545 36,000  Level FlightAware ADS-B
10:05AM 53.6479 -0.8267 281° West 474 545 36,000  Level FlightAware ADS-B
10:05AM 53.6634 -0.9593 281° West 474 545 36,000  Level FlightAware ADS-B
10:06AM 53.6769 -1.0771 281° West 474 545 36,000  Level FlightAware ADS-B
10:07AM 53.6888 -1.2043 279° West 474 545 36,000  Level FlightAware ADS-B
10:07AM 53.6947 -1.3147 275° West 474 545 36,000  Level FlightAware ADS-B
10:08AM 53.7030 -1.4726 275° West 474 545 36,000  Level FlightAware ADS-B
10:09AM 53.7130 -1.6564 275° West 469 540 36,000  Level FlightAware ADS-B
10:09AM 53.7192 -1.7695 275° West 468 539 36,000  Level FlightAware ADS-B
10:10AM 53.7244 -1.8514 276° West 468 539 36,000  Level FlightAware ADS-B
10:10AM 53.7420 -1.9866 282° West 466 536 36,000  Level FlightAware ADS-B
10:11AM 53.7559 -2.0969 282° West 465 535 36,000  Level FlightAware ADS-B
10:12AM 53.7860 -2.3378 282° West 465 535 36,000  Level FlightAware ADS-B
10:12AM 53.8030 -2.4710 282° West 463 533 36,000  Level FlightAware
10:13AM 53.8200 -2.6150 281° West 462 532 36,000  Level FlightAware
10:14AM 53.8370 -2.7590 281° West 462 532 36,000  Level FlightAware
10:15AM 53.8550 -2.9070 282° West 461 531 36,000  Level FlightAware
10:15AM 53.8670 -3.0100 281° West 460 529 36,000  Level FlightAware
10:16AM 53.8830 -3.1410 282° West 461 531 36,000  Level FlightAware
10:16AM 53.9000 -3.2920 281° West 461 531 36,000  Level FlightAware
10:17AM 53.9200 -3.4740 281° West 461 531 36,000  Level FlightAware
10:18AM 53.9390 -3.6290 282° West 462 532 36,000  Level FlightAware
10:19AM 53.9550 -3.7710 281° West 459 528 36,000  Level FlightAware
10:19AM 53.9773 -3.9133 281° West 460 529 36,000  Level FlightAware UK
10:19AM 53.9770 -3.9110 281° West 459 528 36,000  Level FlightAware
10:20AM 54.0110 -4.0590 291° West 458 527 36,000  Level FlightAware
10:21AM 54.0390 -4.1730 293° West 456 525 36,000  Level FlightAware
10:21AM 54.0730 -4.3150 292° West 457 526 36,000  Level FlightAware
10:22AM 54.1099 -4.4738 292° West 462 532 36,000  Level FlightAware UK
10:22AM 54.1100 -4.4760 292° West 456 525 36,000  Level FlightAware
10:23AM 54.1379 -4.5946 292° West 462 532 36,000  Level FlightAware UK
10:23AM 54.1510 -4.6510 292° West 455 524 36,000  Level FlightAware
10:24AM 54.1843 -4.7954 292° West 460 529 36,000  Level FlightAware UK
10:24AM 54.1880 -4.8110 292° West 453 521 36,000  Level FlightAware
10:24AM 54.2170 -4.9370 292° West 456 525 36,000  Level FlightAware
10:25AM 54.2483 -5.0758 292° West 462 532 36,000  Level FlightAware UK
10:25AM 54.2520 -5.0910 292° West 455 524 36,000  Level FlightAware
10:26AM 54.2758 -5.1964 292° West 462 532 36,000  Level FlightAware UK
10:26AM 54.2820 -5.2260 292° West 455 524 36,000  Level FlightAware
10:27AM 54.3150 -5.3710 291° West 453 521 36,000  Level FlightAware
10:27AM 54.3420 -5.4940 291° West 454 522 36,000  Level FlightAware
10:28AM 54.3695 -5.6184 291° West 458 527 36,000  Level FlightAware UK
10:28AM 54.3740 -5.6380 291° West 456 525 36,000  Level FlightAware
10:29AM 54.4040 -5.7750 291° West 457 526 36,000  Level FlightAware
10:29AM 54.4350 -5.9190 291° West 457 526 36,000  Level FlightAware
10:29AM 54.4362 -5.9231 291° West 462 532 36,000  Level FlightAware UK
10:30AM 54.4583 -6.0252 291° West 460 529 36,000  Level FlightAware UK
10:30AM 54.4650 -6.0560 291° West 458 527 36,000  Level FlightAware
10:31AM 54.4940 -6.1890 291° West 460 529 36,000  Level FlightAware
10:31AM 54.5290 -6.3529 291° West 462 532 36,000  Level FlightAware UK
10:31AM 54.5270 -6.3450 291° West 462 532 36,000  Level FlightAware
10:32AM 54.5530 -6.4680 290° West 463 533 36,000  Level FlightAware
10:32AM 54.5775 -6.5815 290° West 462 532 36,000  Level FlightAware UK
10:33AM 54.5850 -6.6200 290° West 463 533 36,000  Level FlightAware
10:33AM 54.6150 -6.7630 290° West 464 534 36,000  Level FlightAware
10:34AM 54.6427 -6.8941 290° West 462 532 36,000  Level FlightAware UK
10:34AM 54.6450 -6.9080 290° West 464 534 36,000  Level FlightAware
10:35AM 54.6730 -7.0400 290° West 461 531 36,000  Level FlightAware
10:35AM 54.7050 -7.1950 290° West 462 532 36,000  Level FlightAware
10:35AM 54.7072 -7.2069 290° West 462 532 36,000  Level FlightAware UK
10:36AM 54.7284 -7.3118 290° West 462 532 36,000  Level FlightAware UK
10:36AM 54.7340 -7.3380 290° West 463 533 36,000  Level FlightAware
10:37AM 54.7690 -7.5120 289° West 466 536 36,000  Level FlightAware
10:38AM 54.7968 -7.6500 289° West 462 532 36,000  Level FlightAware UK
10:38AM 54.7960 -7.6480 289° West 468 539 36,000  Level FlightAware
10:38AM 54.8260 -7.7980 289° West 469 540 36,000  Level FlightAware
10:39AM 54.8500 -7.9220 289° West 470 541 36,000  Level FlightAware
10:40AM 54.8811 -8.0789 289° West 464 534 36,000  Level FlightAware UK
10:40AM 54.8820 -8.0850 289° West 472 543 36,000  Level FlightAware
10:40AM 54.9100 -8.2240 289° West 471 542 36,000  Level FlightAware
10:41AM 54.9420 -8.3920 289° West 473 544 36,000  Level FlightAware
10:41AM 54.9441 -8.4027 289° West 462 532 36,000  Level FlightAware UK
10:42AM 54.9648 -8.5104 289° West 462 532 36,000  Level FlightAware UK
10:42AM 54.9730 -8.5550 289° West 474 545 36,000  Level FlightAware
10:42AM 54.9970 -8.6790 289° West 475 547 36,000  Level FlightAware
10:43AM 55.0280 -8.8440 289° West 477 549 36,000  Level FlightAware
10:43AM 55.0299 -8.8572 289° West 464 534 36,000  Level FlightAware UK
10:44AM 55.0502 -8.9665 289° West 464 534 36,000  Level FlightAware UK
10:44AM 55.0580 -9.0090 289° West 477 549 36,000  Level FlightAware
10:45AM 55.0860 -9.1560 288° West 476 548 36,000  Level FlightAware
10:45AM 55.1080 -9.2770 288° West 476 548 36,000  Level FlightAware
10:46AM 55.1360 -9.4280 288° West 476 548 36,000  Level FlightAware
10:46AM 55.1590 -9.5560 288° West 477 549 36,000  Level FlightAware
10:47AM 55.1890 -9.7220 288° West 479 551 36,000  Level FlightAware
10:48AM 55.2170 -9.8850 287° West 477 549 36,000  Level FlightAware
10:49AM 55.2470 -10.0530 287° West 476 548 36,000  Level FlightAware
10:49AM 55.2730 -10.1990 287° West 476 548 36,000  Level FlightAware
10:50AM 55.3020 -10.3660 287° West 474 545 36,000  Level FlightAware
10:51AM 55.3280 -10.5210 286° West 473 544 36,000  Level FlightAware
10:51AM 55.3560 -10.6850 287° West 472 543 36,000  Level FlightAware
10:52AM 55.3790 -10.8180 287° West 474 545 36,000  Level FlightAware
10:53AM 55.4050 -10.9780 286° West 472 543 36,000  Level FlightAware
10:54AM 55.4330 -11.1460 286° West 470 541 36,000  Level FlightAware
10:54AM 55.4550 -11.2790 286° West 471 542 36,000  Level FlightAware
10:55AM 55.4790 -11.4260 286° West 472 543 36,000  Level FlightAware
10:56AM 55.5060 -11.5940 286° West 472 543 36,000  Level FlightAware
10:56AM 55.5340 -11.7660 286° West 470 541 36,000  Level FlightAware
10:57AM 55.5570 -11.9100 286° West 469 540 36,000  Level FlightAware
10:58AM 55.5830 -12.0770 285° West 469 540 36,000  Level FlightAware
10:58AM 55.6050 -12.2200 285° West 469 540 36,000  Level FlightAware
10:59AM 55.6370 -12.4290 285° West 470 541 36,000  Level FlightAware
11:00AM 55.6650 -12.6120 285° West 470 541 36,000  Level FlightAware
11:01AM 55.6910 -12.7840 285° West 470 541 36,000  Level FlightAware
11:02AM 55.7130 -12.9320 285° West 471 542 36,000  Level FlightAware
11:02AM 55.7330 -13.0660 285° West 472 543 36,000  Level FlightAware
11:03AM 55.7550 -13.2140 285° West 473 544 36,000  Level FlightAware
11:03AM 55.7760 -13.3610 284° West 473 544 36,000  Level FlightAware
11:04AM 55.8030 -13.5500 284° West 473 544 36,000  Level FlightAware
11:05AM 55.8260 -13.7140 284° West 473 544 36,000  Level FlightAware
11:06AM 55.8430 -13.8360 284° West 473 544 36,000  Level FlightAware
11:07AM 55.8600 -13.9550 284° West 473 544 36,000  Level FlightAware
11:07AM 55.8800 -14.1030 284° West 473 544 36,000  Level FlightAware
11:08AM 55.9070 -14.2960 284° West 473 544 36,000  Level FlightAware
11:09AM 55.9240 -14.4150 284° West 473 544 36,000  Level FlightAware
11:10AM 55.9450 -14.5700 284° West 473 544 36,000  Level FlightAware
11:10AM 55.9620 -14.6860 285° West 473 544 36,000  Level FlightAware
11:11AM 55.9900 -14.8890 284° West 473 544 36,000  Level FlightAware
11:12AM 56.0080 -15.0210 284° West 473 544 36,000  Level FlightAware
11:13AM 56.0250 -15.1410 284° West 473 544 36,000  Level FlightAware
11:13AM 56.0470 -15.2960 284° West 473 544 36,000  Level FlightAware
11:14AM 56.0630 -15.4120 284° West 473 544 36,000  Level FlightAware
11:17AM 56.1360 -15.9134 285° West  Level Estimated
11:18AM 56.1651 -16.1172 284° West  Level Estimated
11:19AM 56.1938 -16.3213 284° West  Level Estimated
11:20AM 56.2221 -16.5257 284° West  Level Estimated
11:21AM 56.2501 -16.7304 284° West  Level Estimated
11:22AM 56.2778 -16.9354 284° West  Level Estimated
11:23AM 56.3052 -17.1407 284° West  Level Estimated
11:24AM 56.3322 -17.3463 283° West  Level Estimated
11:25AM 56.3588 -17.5522 283° West  Level Estimated
11:26AM 56.3852 -17.7584 283° West  Level Estimated
11:27AM 56.4111 -17.9648 283° West  Level Estimated
11:28AM 56.4368 -18.1715 283° West  Level Estimated
11:29AM 56.4621 -18.3785 283° West  Level Estimated
11:30AM 56.4870 -18.5858 282° West  Level Estimated
11:31AM 56.5116 -18.7934 282° West  Level Estimated
11:32AM 56.5359 -19.0012 282° West  Level Estimated
11:33AM 56.5598 -19.2093 282° West  Level Estimated
11:34AM 57.0000 -20.0000 285° West 446 513 36,000  Level ETMS Enhanced Traffic Management System
11:34AM 56.5833 -19.4177 282° West  Level Estimated
11:35AM 56.6065 -19.6263 282° West  Level Estimated
11:36AM 56.6294 -19.8351 281° West  Level Estimated
11:37AM 56.6519 -20.0442 281° West  Level Estimated
11:38AM 56.6741 -20.2536 281° West  Level Estimated
11:39AM 56.6959 -20.4632 281° West  Level Estimated
11:40AM 57.1824 -21.3287 284° West 446 513 36,000  Level FlightAware Transoceanic
11:41AM 57.2114 -21.5513 283° West 446 513 36,000  Level FlightAware Transoceanic
11:42AM 57.2401 -21.7744 283° West 446 513 36,000  Level FlightAware Transoceanic
11:43AM 57.2683 -21.9978 283° West 446 513 36,000  Level FlightAware Transoceanic
11:44AM 57.2961 -22.2215 283° West 446 513 36,000  Level FlightAware Transoceanic
11:45AM 57.3236 -22.4456 283° West 446 513 36,000  Level FlightAware Transoceanic
11:46AM 57.3506 -22.6700 282° West 446 513 36,000  Level FlightAware Transoceanic
11:47AM 57.3773 -22.8947 282° West 446 513 36,000  Level FlightAware Transoceanic
11:48AM 57.4035 -23.1198 282° West 446 513 36,000  Level FlightAware Transoceanic
11:49AM 57.4293 -23.3451 282° West 446 513 36,000  Level FlightAware Transoceanic
11:50AM 57.4548 -23.5708 282° West 446 513 36,000  Level FlightAware Transoceanic
11:51AM 57.4798 -23.7968 282° West 446 513 36,000  Level FlightAware Transoceanic
11:52AM 57.5044 -24.0231 281° West 446 513 36,000  Level FlightAware Transoceanic
11:53AM 57.5287 -24.2497 281° West 446 513 36,000  Level FlightAware Transoceanic
11:54AM 57.5525 -24.4766 281° West 446 513 36,000  Level FlightAware Transoceanic
11:55AM 57.5759 -24.7038 281° West 446 513 36,000  Level FlightAware Transoceanic
11:56AM 57.5989 -24.9313 281° West 446 513 36,000  Level FlightAware Transoceanic
11:57AM 57.6215 -25.1591 280° West 446 513 36,000  Level FlightAware Transoceanic
11:58AM 57.6437 -25.3872 280° West 446 513 36,000  Level FlightAware Transoceanic
11:59AM 57.6654 -25.6155 280° West 446 513 36,000  Level FlightAware Transoceanic
12:00PM 57.6868 -25.8441 280° West 446 513 36,000  Level FlightAware Transoceanic
12:01PM 57.7077 -26.0730 280° West 446 513 36,000  Level FlightAware Transoceanic
12:02PM 57.7283 -26.3021 279° West 446 513 36,000  Level FlightAware Transoceanic
12:03PM 57.7484 -26.5315 279° West 446 513 36,000  Level FlightAware Transoceanic
12:04PM 57.7681 -26.7612 279° West 446 513 36,000  Level FlightAware Transoceanic
12:05PM 57.7874 -26.9911 279° West 446 513 36,000  Level FlightAware Transoceanic
12:06PM 57.8063 -27.2212 279° West 446 513 36,000  Level FlightAware Transoceanic
12:07PM 57.8247 -27.4516 278° West 446 513 36,000  Level FlightAware Transoceanic
12:08PM 57.8428 -27.6822 278° West 446 513 36,000  Level FlightAware Transoceanic
12:09PM 57.8604 -27.9130 278° West 446 513 36,000  Level FlightAware Transoceanic
12:10PM 57.8776 -28.1441 278° West 446 513 36,000  Level FlightAware Transoceanic
12:11PM 57.8944 -28.3754 278° West 446 513 36,000  Level FlightAware Transoceanic
12:12PM 57.9107 -28.6068 277° West 446 513 36,000  Level FlightAware Transoceanic
12:13PM 57.9267 -28.8386 277° West 446 513 36,000  Level FlightAware Transoceanic
12:14PM 57.9422 -29.0705 277° West 446 513 36,000  Level FlightAware Transoceanic
12:15PM 57.9573 -29.3026 277° West 446 513 36,000  Level FlightAware Transoceanic
12:16PM 57.9719 -29.5348 277° West 446 513 36,000  Level FlightAware Transoceanic
12:17PM 57.9862 -29.7673 276° West 446 513 36,000  Level FlightAware Transoceanic
12:18PM 57.9992 -29.9870 276° West  Level FlightAware Approximate
12:19PM 58.0119 -30.2069 276° West  Level FlightAware Approximate
12:20PM 58.0259 -30.1889 285° West  Level FlightAware Approximate
12:21PM 58.0549 -30.4033 284° West  Level FlightAware Approximate
12:22PM 58.0836 -30.6181 284° West  Level FlightAware Approximate
12:23PM 58.1119 -30.8333 284° West  Level FlightAware Approximate
12:24PM 58.1398 -31.0488 284° West  Level FlightAware Approximate
12:25PM 58.1674 -31.2646 284° West  Level FlightAware Approximate
12:26PM 58.1946 -31.4807 284° West  Level FlightAware Approximate
12:27PM 58.2214 -31.6972 283° West  Level FlightAware Approximate
12:28PM 58.2479 -31.9141 283° West  Level FlightAware Approximate
12:29PM 58.2740 -32.1312 283° West  Level FlightAware Approximate
12:30PM 58.2998 -32.3487 283° West  Level FlightAware Approximate
12:31PM 58.3251 -32.5664 283° West  Level FlightAware Approximate
12:32PM 58.3502 -32.7845 283° West  Level FlightAware Approximate
12:33PM 58.3769 -33.0020 283° West  Level FlightAware Approximate
12:34PM 58.4032 -33.2198 283° West  Level FlightAware Approximate
12:35PM 58.4292 -33.4380 283° West  Level FlightAware Approximate
12:36PM 58.4548 -33.6565 283° West  Level FlightAware Approximate
12:37PM 58.4800 -33.8753 283° West  Level FlightAware Approximate
12:38PM 58.5048 -34.0944 282° West  Level FlightAware Approximate
12:39PM 58.5288 -34.3140 282° West  Level FlightAware Approximate
12:40PM 58.5520 -34.5340 282° West  Level FlightAware Approximate
12:41PM 58.5748 -34.7544 281° West  Level FlightAware Approximate
12:42PM 58.5972 -34.9751 281° West  Level FlightAware Approximate
12:43PM 58.6193 -35.1960 281° West  Level FlightAware Approximate
12:44PM 58.6409 -35.4172 281° West  Level FlightAware Approximate
12:45PM 58.6622 -35.6387 281° West  Level FlightAware Approximate
12:46PM 58.6832 -35.8604 280° West  Level FlightAware Approximate
12:47PM 58.7037 -36.0824 280° West  Level FlightAware Approximate
12:48PM 58.7238 -36.3047 280° West  Level FlightAware Approximate
12:50PM 58.7769 -36.9135 280° West  Level FlightAware Approximate
12:52PM 58.8005 -37.1963 279° West  Level FlightAware Approximate
12:53PM 58.8188 -37.4198 279° West  Level FlightAware Approximate
12:54PM 58.8366 -37.6435 279° West  Level FlightAware Approximate
12:55PM 58.8540 -37.8675 279° West  Level FlightAware Approximate
12:56PM 58.8711 -38.0917 278° West  Level FlightAware Approximate
12:57PM 58.8878 -38.3161 278° West  Level FlightAware Approximate
12:58PM 58.9040 -38.5407 278° West  Level FlightAware Approximate
12:59PM 58.9199 -38.7655 278° West  Level FlightAware Approximate
01:00PM 58.9354 -38.9905 278° West  Level FlightAware Approximate
01:01PM 58.9506 -39.2158 278° West  Level FlightAware Approximate
01:02PM 58.9653 -39.4412 277° West  Level FlightAware Approximate
01:03PM 58.9796 -39.6668 277° West  Level FlightAware Approximate
01:04PM 58.9935 -39.8926 277° West  Level FlightAware Approximate
01:05PM 59.0043 -40.1191 274° West  Level FlightAware Approximate
01:06PM 59.0122 -40.3461 274° West  Level FlightAware Approximate
01:07PM 59.0197 -40.5732 274° West  Level FlightAware Approximate
01:08PM 59.0269 -40.8005 274° West  Level FlightAware Approximate
01:09PM 59.0336 -41.0278 273° West  Level FlightAware Approximate
01:10PM 59.0399 -41.2552 273° West  Level FlightAware Approximate
01:11PM 59.0458 -41.4827 273° West  Level FlightAware Approximate
01:12PM 59.0513 -41.7103 273° West  Level FlightAware Approximate
01:13PM 59.0565 -41.9379 273° West  Level FlightAware Approximate
01:14PM 59.0612 -42.1656 272° West  Level FlightAware Approximate
01:15PM 59.0655 -42.3934 272° West  Level FlightAware Approximate
01:16PM 59.0695 -42.6212 272° West  Level FlightAware Approximate
01:17PM 59.0730 -42.8491 272° West  Level FlightAware Approximate
01:18PM 59.0761 -43.0770 272° West  Level FlightAware Approximate
01:19PM 59.0788 -43.3049 271° West  Level FlightAware Approximate
01:20PM 59.0812 -43.5329 271° West  Level FlightAware Approximate
01:21PM 59.0831 -43.7609 271° West  Level FlightAware Approximate
01:22PM 59.0846 -43.9890 271° West  Level FlightAware Approximate
01:23PM 59.0858 -44.2170 271° West  Level FlightAware Approximate
01:24PM 59.0865 -44.4451 270° West  Level FlightAware Approximate
01:25PM 59.0868 -44.6732 270° West  Level FlightAware Approximate
01:26PM 59.0868 -44.9013 270° West  Level FlightAware Approximate
01:27PM 59.0863 -45.1293 270° West  Level FlightAware Approximate
01:28PM 59.0854 -45.3574 270° West  Level FlightAware Approximate
01:29PM 59.0841 -45.5854 269° West  Level FlightAware Approximate
01:30PM 59.0830 -45.8135 270° West  Level FlightAware Approximate
01:31PM 59.0819 -46.0415 270° West  Level FlightAware Approximate
01:32PM 59.0805 -46.2695 269° West  Level FlightAware Approximate
01:33PM 59.0787 -46.4975 269° West  Level FlightAware Approximate
01:34PM 59.0764 -46.7255 269° West  Level FlightAware Approximate
01:35PM 59.0738 -46.9534 269° West  Level FlightAware Approximate
01:36PM 59.0707 -47.1814 269° West  Level FlightAware Approximate
01:37PM 59.0673 -47.4092 268° West  Level FlightAware Approximate
01:38PM 59.0634 -47.6370 268° West  Level FlightAware Approximate
01:39PM 59.0592 -47.8648 268° West  Level FlightAware Approximate
01:40PM 59.0546 -48.0925 268° West  Level FlightAware Approximate
01:41PM 59.0495 -48.3201 268° West  Level FlightAware Approximate
01:42PM 59.0441 -48.5477 267° West  Level FlightAware Approximate
01:43PM 59.0383 -48.7752 267° West  Level FlightAware Approximate
01:44PM 59.0321 -49.0026 267° West  Level FlightAware Approximate
01:45PM 59.0254 -49.2299 267° West  Level FlightAware Approximate
01:46PM 59.0184 -49.4572 267° West  Level FlightAware Approximate
01:47PM 59.0110 -49.6843 266° West  Level FlightAware Approximate
01:48PM 59.0032 -49.9113 266° West  Level FlightAware Approximate
01:49PM 58.9794 -50.1327 253° West  Level FlightAware Approximate
01:50PM 58.9453 -50.3501 253° West  Level FlightAware Approximate
01:51PM 58.9108 -50.5671 253° West  Level FlightAware Approximate
01:52PM 58.8760 -50.7836 253° West  Level FlightAware Approximate
01:53PM 58.8408 -50.9997 253° West  Level FlightAware Approximate
01:54PM 58.8052 -51.2154 252° West  Level FlightAware Approximate
01:55PM 58.7693 -51.4306 252° West  Level FlightAware Approximate
01:56PM 58.7330 -51.6454 252° West  Level FlightAware Approximate
01:57PM 58.6964 -51.8597 252° West  Level FlightAware Approximate
01:58PM 58.6594 -52.0736 252° West  Level FlightAware Approximate
01:59PM 58.6220 -52.2870 252° West  Level FlightAware Approximate
02:00PM 58.5844 -52.4999 251° West  Level FlightAware Approximate
02:01PM 58.5463 -52.7124 251° West  Level FlightAware Approximate
02:02PM 58.5079 -52.9245 251° West  Level FlightAware Approximate
02:03PM 58.4692 -53.1361 251° West  Level FlightAware Approximate
02:03PM 58.1333 -55.0500 247° West 440 506 36,000  Level Gander Center
02:04PM 58.4301 -53.3471 251° West  Level FlightAware Approximate
02:04PM 58.0667 -55.2833 242° Southwest 460 529 36,000  Level Gander Center
02:05PM 58.3907 -53.5578 250° West  Level FlightAware Approximate
02:05PM 58.0500 -55.4833 261° West 460 529 36,000  Level Gander Center
02:06PM 58.3460 -53.7645 248° West  Level Estimated
02:06PM 57.9500 -55.7167 231° Southwest 460 529 36,000  Level Gander Center
02:07PM 58.3010 -53.9707 248° West  Level Estimated
02:07PM 57.9167 -55.9500 255° West 470 541 36,000  Level Gander Center
02:08PM 58.2556 -54.1763 247° West  Level Estimated
02:08PM 57.8500 -56.1333 236° Southwest 460 529 36,000  Level Gander Center
02:09PM 58.2099 -54.3815 247° West  Level Estimated
02:09PM 57.7833 -56.3667 242° Southwest 470 541 36,500  Level Gander Center
02:10PM 57.7167 -56.6000 242° Southwest 470 541 37,100 600 Climbing Gander Center
02:11PM 57.6667 -56.7833 243° Southwest 470 541 37,800 420 Climbing Gander Center
02:12PM 57.6000 -57.0167 242° Southwest 460 529 38,000 60 Climbing Gander Center
02:13PM 57.5333 -57.2167 238° Southwest 470 541 38,000  Level Gander Center
02:14PM 57.4833 -57.4333 247° West 470 541 38,000  Level Gander Center
02:15PM 57.4167 -57.6500 240° Southwest 470 541 38,000  Level Gander Center
02:16PM 57.3667 -57.8167 241° Southwest 470 541 38,000  Level Gander Center
02:17PM 57.3167 -58.0333 247° West 460 529 38,000  Level Gander Center
02:18PM 57.2500 -58.2000 234° Southwest 440 506 38,000  Level Gander Center
02:19PM 57.1833 -58.4500 244° Southwest 480 552 38,000  Level Gander Center
02:21PM 57.0500 -58.8833 241° Southwest 450 518 38,000  Level Gander Center
02:22PM 56.9833 -59.1000 241° Southwest 470 541 38,000  Level Gander Center
02:23PM 56.9167 -59.3000 239° Southwest 450 518 38,000  Level Gander Center
02:24PM 56.8500 -59.4833 236° Southwest 460 529 38,000  Level Gander Center
02:25PM 56.8000 -59.7000 247° West 460 529 38,000  Level Gander Center
02:26PM 56.7333 -59.8833 237° Southwest 450 518 38,000  Level Gander Center
02:27PM 56.6667 -60.1000 241° Southwest 450 518 38,000  Level Gander Center
02:28PM 56.6000 -60.2833 237° Southwest 460 529 38,000  Level Gander Center
02:29PM 56.5333 -60.5000 241° Southwest 460 529 38,000  Level Gander Center
02:30PM 56.4667 -60.6833 237° Southwest 460 529 38,000  Level Gander Center
02:32PM 56.3833 -60.9000 235° Southwest 460 529 38,000  Level Montreal Center
02:33PM 56.3167 -61.1000 239° Southwest 460 529 38,000  Level Montreal Center
02:34PM 56.2500 -61.2833 237° Southwest 460 529 38,000  Level Montreal Center
02:34PM 56.2000 -61.5000 248° West 460 529 38,000  Level Gander Center
02:35PM 56.1333 -61.6667 234° Southwest 460 529 38,000  Level Gander Center
02:36PM 56.0667 -61.8833 241° Southwest 470 541 38,000  Level Gander Center
02:37PM 56.0000 -62.0667 237° Southwest 460 529 38,000  Level Gander Center
02:38PM 55.9333 -62.2667 239° Southwest 460 529 38,000  Level Gander Center
02:39PM 55.8667 -62.4500 237° Southwest 450 518 38,000  Level Gander Center
02:40PM 55.8000 -62.6167 235° Southwest 450 518 38,000  Level Gander Center
02:41PM 55.7333 -62.8167 239° Southwest 450 518 38,000  Level Gander Center
02:42PM 55.6500 -63.0000 231° Southwest 450 518 38,000  Level Gander Center
02:43PM 55.5833 -63.2000 240° Southwest 460 529 38,000  Level Gander Center
02:44PM 55.5167 -63.3833 237° Southwest 460 529 38,000  Level Gander Center
02:45PM 55.4500 -63.5500 235° Southwest 450 518 38,000  Level Gander Center
02:46PM 55.3833 -63.7500 240° Southwest 460 529 38,000  Level Gander Center
02:47PM 55.3000 -63.9167 229° Southwest 460 529 38,000  Level Gander Center
02:48PM 55.2333 -64.1167 240° Southwest 440 506 38,000  Level Gander Center
02:49PM 55.1667 -64.3000 238° Southwest 440 506 38,000  Level Gander Center
02:50PM 55.1000 -64.4667 235° Southwest 440 506 38,000  Level Gander Center
02:51PM 55.0167 -64.6333 229° Southwest 450 518 38,000  Level Gander Center
02:52PM 54.9500 -64.8333 240° Southwest 450 518 38,000  Level Gander Center
02:53PM 54.8833 -65.0000 235° Southwest 450 518 38,000  Level Gander Center
02:54PM 54.8000 -65.2000 234° Southwest 450 518 38,000  Level Gander Center
02:55PM 54.7333 -65.3667 235° Southwest 460 529 38,000  Level Gander Center
02:56PM 54.6833 -65.5333 243° Southwest 450 518 38,000  Level Gander Center
02:57PM 54.5833 -65.7167 227° Southwest 460 529 38,000  Level Gander Center
02:58PM 54.5167 -65.8833 235° Southwest 460 529 38,000  Level Gander Center
02:59PM 54.4333 -66.0833 234° Southwest 460 529 38,000  Level Gander Center
03:00PM 54.3667 -66.2500 236° Southwest 460 529 38,000  Level Gander Center
03:02PM 54.2833 -66.4333 232° Southwest 450 518 38,000  Level Montreal Center
03:03PM 54.2000 -66.6167 232° Southwest 460 529 38,000  Level Montreal Center
03:04PM 54.1333 -66.7833 236° Southwest 460 529 38,000  Level Montreal Center
03:05PM 54.0500 -66.9333 227° Southwest 450 518 38,000  Level Montreal Center
03:06PM 53.9667 -67.1333 235° Southwest 450 518 38,000  Level Montreal Center
03:07PM 53.9000 -67.3167 238° Southwest 450 518 38,000  Level Montreal Center
03:08PM 53.8333 -67.4833 236° Southwest 440 506 38,000  Level Montreal Center
03:09PM 53.7333 -67.6333 222° Southwest 440 506 38,000  Level Montreal Center
03:10PM 53.6667 -67.8167 239° Southwest 440 506 38,000  Level Montreal Center
03:11PM 53.6000 -67.9833 236° Southwest 440 506 38,000  Level Montreal Center
03:11PM 53.5333 -68.1167 230° Southwest 450 518 38,000  Level Gander Center
03:12PM 53.4667 -68.3167 241° Southwest 450 518 38,000  Level Gander Center
03:13PM 53.3833 -68.5000 233° Southwest 450 518 38,000  Level Gander Center
03:14PM 53.3000 -68.6500 227° Southwest 450 518 38,000  Level Gander Center
03:15PM 53.2333 -68.8000 233° Southwest 450 518 38,000  Level Gander Center
03:16PM 53.1500 -68.9833 233° Southwest 450 518 38,000  Level Gander Center
03:17PM 53.0667 -69.1333 227° Southwest 450 518 38,000  Level Gander Center
03:18PM 53.0000 -69.3000 236° Southwest 450 518 38,000  Level Gander Center
03:19PM 52.9167 -69.4667 230° Southwest 450 518 38,000  Level Gander Center
03:20PM 52.8500 -69.6333 237° Southwest 450 518 38,000  Level Gander Center
03:21PM 52.7833 -69.7833 234° Southwest 440 506 38,000  Level Gander Center
03:23PM 52.6667 -69.9667 224° Southwest 440 506 38,000  Level Montreal Center
03:24PM 52.6000 -70.1167 234° Southwest 430 495 38,000  Level Montreal Center
03:24PM 52.5333 -70.2667 234° Southwest 440 506 38,000  Level Gander Center
03:25PM 52.4667 -70.4167 234° Southwest 440 506 38,000  Level Gander Center
03:26PM 52.3833 -70.5667 228° Southwest 440 506 38,000  Level Gander Center
03:27PM 52.3167 -70.7167 234° Southwest 430 495 38,000  Level Gander Center
03:28PM 52.2500 -70.8667 234° Southwest 440 506 38,000  Level Gander Center
03:29PM 52.1667 -71.0333 231° Southwest 440 506 38,000  Level Gander Center
03:30PM 52.0833 -71.1833 228° Southwest 440 506 38,000  Level Gander Center
03:31PM 52.0000 -71.3333 228° Southwest 440 506 38,000  Level Gander Center
03:32PM 51.9167 -71.4667 225° Southwest 440 506 38,000  Level Gander Center
03:33PM 51.8333 -71.6500 234° Southwest 440 506 38,000  Level Gander Center
03:34PM 51.7667 -71.7833 231° Southwest 440 506 38,000  Level Gander Center
03:35PM 51.6833 -71.9333 228° Southwest 440 506 38,000  Level Gander Center
03:36PM 51.6167 -72.0833 234° Southwest 440 506 38,000  Level Gander Center
03:37PM 51.5333 -72.2167 225° Southwest 420 483 38,000  Level Gander Center
03:38PM 51.4500 -72.3667 228° Southwest 420 483 38,000  Level Gander Center
03:39PM 51.3833 -72.5167 235° Southwest 430 495 38,000  Level Gander Center
03:40PM 51.3000 -72.6500 225° Southwest 420 483 38,000  Level Gander Center
03:41PM 51.2333 -72.8000 235° Southwest 420 483 38,000  Level Gander Center
03:42PM 51.1667 -72.9167 228° Southwest 410 472 38,000  Level Gander Center
03:43PM 51.0833 -73.0500 225° Southwest 410 472 38,000  Level Gander Center
03:44PM 51.0000 -73.2000 229° Southwest 400 460 38,000  Level Gander Center
03:45PM 50.9333 -73.3333 232° Southwest 410 472 38,000  Level Gander Center
03:46PM 50.8500 -73.4833 229° Southwest 430 495 38,000  Level Gander Center
03:48PM 50.7667 -73.6000 222° Southwest 400 460 38,000  Level Montreal Center
03:49PM 50.7000 -73.7333 232° Southwest 400 460 38,000  Level Montreal Center
03:50PM 50.6167 -73.8500 222° Southwest 400 460 38,000  Level Montreal Center
03:51PM 50.5500 -73.9833 232° Southwest 390 449 38,000  Level Montreal Center
03:52PM 50.4667 -74.1167 226° Southwest 390 449 38,000  Level Montreal Center
03:53PM 50.4000 -74.2500 232° Southwest 390 449 38,000  Level Montreal Center
03:54PM 50.3167 -74.3500 217° Southwest 390 449 38,000  Level Montreal Center
03:55PM 50.2500 -74.5000 235° Southwest 400 460 38,000  Level Montreal Center
03:56PM 50.1667 -74.6333 226° Southwest 400 460 38,000  Level Montreal Center
03:57PM 50.0833 -74.7667 226° Southwest 400 460 38,000  Level Montreal Center
03:58PM 50.0167 -74.8667 224° Southwest 400 460 38,000  Level Montreal Center
03:59PM 49.9333 -75.0000 226° Southwest 400 460 38,000  Level Montreal Center
04:00PM 49.8667 -75.1333 232° Southwest 400 460 38,000  Level Montreal Center
04:01PM 49.7833 -75.2667 226° Southwest 400 460 38,000  Level Montreal Center
04:02PM 49.7167 -75.4000 232° Southwest 400 460 38,000  Level Montreal Center
04:03PM 49.6333 -75.5167 222° Southwest 390 449 38,000  Level Montreal Center
04:04PM 49.5667 -75.6333 229° Southwest 400 460 38,000  Level Montreal Center
04:05PM 49.4833 -75.7667 226° Southwest 390 449 38,000  Level Montreal Center
04:06PM 49.4000 -75.8833 222° Southwest 390 449 38,000  Level Montreal Center
04:07PM 49.3333 -76.0000 229° Southwest 390 449 38,000  Level Montreal Center
04:08PM 49.2667 -76.1167 229° Southwest 390 449 38,000  Level Montreal Center
04:09PM 49.1833 -76.2500 226° Southwest 390 449 38,000  Level Montreal Center
04:10PM 49.1000 -76.3833 226° Southwest 390 449 38,000  Level Montreal Center
04:11PM 49.0333 -76.4833 225° Southwest 390 449 38,000  Level Montreal Center
04:12PM 48.9500 -76.6000 223° Southwest 390 449 38,000  Level Montreal Center
04:13PM 48.8833 -76.7333 233° Southwest 400 460 38,000  Level Montreal Center
04:14PM 48.8000 -76.8667 227° Southwest 400 460 38,000  Level Montreal Center
04:15PM 48.7333 -76.9833 229° Southwest 400 460 38,000  Level Montreal Center
04:16PM 48.6333 -77.0833 213° Southwest 400 460 38,000  Level Montreal Center
04:17PM 48.5500 -77.2167 227° Southwest 400 460 38,000  Level Montreal Center
04:18PM 48.4833 -77.3333 229° Southwest 400 460 38,000  Level Montreal Center
04:19PM 48.4000 -77.4667 227° Southwest 400 460 38,000  Level Montreal Center
04:20PM 48.3333 -77.5833 229° Southwest 400 460 38,000  Level Montreal Center
04:21PM 48.2500 -77.7000 223° Southwest 400 460 38,000  Level Montreal Center
04:22PM 48.1667 -77.8000 219° Southwest 410 472 38,000  Level Montreal Center
04:23PM 48.0667 -77.9333 222° Southwest 420 483 38,000  Level Montreal Center
04:29PM 47.4810 -78.4550 222° Southwest 433 498 38,000  Level FlightAware
04:29PM 47.4200 -78.5100 211° Southwest 430 495 38,000  Level FlightAware
04:30PM 47.3620 -78.5620 211° Southwest 430 495 38,000  Level FlightAware
04:30PM 47.2950 -78.6220 211° Southwest 432 497 38,000  Level FlightAware
04:31PM 47.2300 -78.6800 211° Southwest 434 499 38,000  Level FlightAware
04:32PM 47.1610 -78.7410 211° Southwest 433 498 38,000  Level FlightAware
04:32PM 47.0860 -78.8070 211° Southwest 428 493 38,000  Level FlightAware
04:33PM 47.0190 -78.8670 211° Southwest 427 491 38,000  Level FlightAware
04:34PM 46.9580 -78.9210 211° Southwest 426 490 38,000  Level FlightAware
04:34PM 46.8760 -78.9930 211° Southwest 424 488 38,000  Level FlightAware
04:35PM 46.8040 -79.0560 211° Southwest 422 486 38,000  Level FlightAware
04:36PM 46.7370 -79.1140 211° Southwest 418 481 38,000  Level FlightAware
04:37PM 46.6670 -79.1750 211° Southwest 414 476 38,000  Level FlightAware
04:37PM 46.6020 -79.2320 211° Southwest 414 476 38,000  Level FlightAware
04:38PM 46.5280 -79.2950 210° Southwest 416 479 38,000  Level FlightAware
04:39PM 46.4620 -79.3520 211° Southwest 418 481 38,000  Level FlightAware
04:39PM 46.3850 -79.4190 211° Southwest 419 482 38,000  Level FlightAware
04:42PM 46.1190 -79.6970 216° Southwest 418 481 38,000  Level FlightAware
04:43PM 46.0500 -79.7690 216° Southwest 419 482 38,000  Level FlightAware
04:44PM 45.9490 -79.8760 216° Southwest 419 482 38,000  Level FlightAware
04:45PM 45.8560 -79.9730 216° Southwest 428 493 38,000  Level FlightAware
04:46PM 45.7850 -80.0470 216° Southwest 435 501 38,000  Level FlightAware
04:47PM 45.6960 -80.1400 216° Southwest 432 497 38,000  Level FlightAware
04:48PM 45.6160 -80.2230 216° Southwest 429 494 38,000  Level FlightAware
04:48PM 45.5510 -80.2900 216° Southwest 429 494 38,000  Level FlightAware
04:49PM 45.4900 -80.3520 215° Southwest 429 494 38,000  Level FlightAware
04:50PM 45.4050 -80.4390 216° Southwest 427 491 38,000  Level FlightAware
04:50PM 45.3350 -80.5110 216° Southwest 431 496 38,000  Level FlightAware
04:51PM 45.2680 -80.5790 216° Southwest 434 499 38,000  Level FlightAware
04:52PM 45.2030 -80.6450 216° Southwest 435 501 38,000  Level FlightAware
04:52PM 45.1420 -80.7070 216° Southwest 437 503 38,000  Level FlightAware
04:53PM 45.0830 -80.7660 215° Southwest 437 503 38,000  Level FlightAware
04:54PM 44.9970 -80.8530 216° Southwest 440 506 38,000  Level FlightAware
04:55PM 44.9340 -80.9160 215° Southwest 441 507 38,000  Level FlightAware
04:55PM 44.8640 -80.9870 216° Southwest 445 512 38,000  Level FlightAware
04:56PM 44.8020 -81.0480 215° Southwest 447 514 38,000  Level FlightAware
04:57PM 44.7440 -81.1060 215° Southwest 445 512 38,000  Level FlightAware
04:57PM 44.6490 -81.2120 218° Southwest 443 510 38,000  Level FlightAware
04:58PM 44.5930 -81.2750 219° Southwest 446 513 38,000  Level FlightAware
04:59PM 44.5100 -81.3670 218° Southwest 448 516 38,000  Level FlightAware
05:00PM 44.4570 -81.4260 218° Southwest 451 519 38,000  Level FlightAware
05:01PM 44.3470 -81.5470 218° Southwest 453 521 38,000  Level FlightAware
05:01PM 44.2810 -81.6190 218° Southwest 453 521 38,000  Level FlightAware
05:02PM 44.2170 -81.6890 218° Southwest 454 522 38,000  Level FlightAware
05:03PM 44.1540 -81.7580 218° Southwest 455 524 38,000  Level FlightAware
05:03PM 44.0860 -81.8320 218° Southwest 456 525 38,000  Level FlightAware
05:04PM 44.0170 -81.9070 218° Southwest 457 526 38,000  Level FlightAware
05:05PM 43.9430 -81.9870 218° Southwest 458 527 38,000  Level FlightAware
05:05PM 43.8770 -82.0580 218° Southwest 461 531 38,000  Level FlightAware
05:06PM 43.8180 -82.1220 218° Southwest 463 533 38,000  Level FlightAware
05:07PM 43.7410 -82.2040 218° Southwest 466 536 38,000  Level FlightAware
05:08PM 43.6420 -82.3100 218° Southwest 468 539 38,000  Level FlightAware
05:08PM 43.5960 -82.3590 218° Southwest 466 536 38,000 -360 Level FlightAware
05:08PM 43.5670 -82.4040 228° Southwest 465 535 37,700 -960 Descending FlightAware
05:09PM 43.5240 -82.5010 239° Southwest 468 539 37,100 -1,080 Descending FlightAware
05:10PM 43.4760 -82.6110 239° Southwest 470 541 36,400 -1,020 Descending FlightAware
05:10PM 43.4390 -82.6970 239° Southwest 467 537 35,800 -600 Descending FlightAware
05:11PM 43.3920 -82.8010 238° Southwest 464 534 35,600 -1,080 Descending FlightAware
05:12PM 43.3310 -82.9400 239° Southwest 471 542 34,200 -1,380 Descending FlightAware
05:13PM 43.2820 -83.0510 239° Southwest 469 540 33,500 -1,020 Descending FlightAware
05:13PM 43.2350 -83.1560 238° Southwest 457 526 32,800 -1,020 Descending FlightAware
05:14PM 43.1920 -83.2510 238° Southwest 447 514 32,200 -600 Descending FlightAware
05:15PM 43.1440 -83.3570 238° Southwest 446 513 32,000 -180 Descending FlightAware
05:15PM 43.0960 -83.4620 238° Southwest 451 519 32,000  Level FlightAware
05:16PM 43.0610 -83.5410 239° Southwest 451 519 32,000  Level FlightAware
05:17PM 43.0140 -83.6460 239° Southwest 450 518 32,000  Level FlightAware
05:17PM 42.9770 -83.7620 246° West 450 518 32,000  Level FlightAware
05:18PM 42.9560 -83.8680 255° West 449 517 32,000  Level FlightAware
05:19PM 42.9440 -83.9850 262° West 452 520 32,000  Level FlightAware
05:19PM 42.9330 -84.0970 262° West 453 521 32,000  Level FlightAware
05:22PM 42.8890 -84.5410 262° West 454 522 32,000  Level FlightAware
05:23PM 42.8770 -84.6550 262° West 455 524 32,000  Level FlightAware
05:24PM 42.8540 -84.8790 262° West 456 525 32,000  Level FlightAware
05:25PM 42.8410 -84.9960 261° West 456 525 32,000  Level FlightAware
05:25PM 42.8280 -85.1200 262° West 459 528 32,000 -600 Level FlightAware
05:26PM 42.8180 -85.2110 262° West 451 519 31,300 -1,500 Descending FlightAware
05:27PM 42.8040 -85.3380 261° West 434 499 30,100 -1,560 Descending FlightAware
05:27PM 42.7930 -85.4420 262° West 420 483 29,100 -1,500 Descending FlightAware
05:28PM 42.7800 -85.5360 259° West 409 471 28,200 -1,620 Descending FlightAware
05:29PM 42.7630 -85.6330 257° West 399 459 27,100 -1,620 Descending FlightAware
05:29PM 42.7440 -85.7340 256° West 388 447 26,000 -1,500 Descending FlightAware
05:30PM 42.7250 -85.8400 256° West 377 434 24,900 -1,500 Descending FlightAware
05:31PM 42.7090 -85.9270 256° West 368 423 23,900 -1,620 Descending FlightAware
05:31PM 42.6920 -86.0200 256° West 361 415 22,800 -1,560 Descending FlightAware
05:32PM 42.6750 -86.1170 257° West 352 405 21,700 -1,440 Descending FlightAware
05:33PM 42.6590 -86.2020 256° West 346 398 20,800 -1,440 Descending FlightAware
05:34PM 42.6420 -86.2930 256° West 340 391 19,700 -1,800 Descending FlightAware
05:34PM 42.6260 -86.3790 256° West 357 411 18,300 -1,680 Descending FlightAware
05:35PM 42.6080 -86.4760 256° West 339 390 17,400 -1,440 Descending FlightAware
05:36PM 42.5930 -86.5550 256° West 337 388 16,300 -1,740 Descending FlightAware
05:36PM 42.5760 -86.6440 255° West 335 386 15,000 -1,680 Descending FlightAware
05:37PM 42.5600 -86.7270 255° West 328 377 13,900 -1,680 Descending FlightAware
05:38PM 42.5400 -86.8020 250° West 327 376 12,800 -1,200 Descending FlightAware
05:38PM 42.5200 -86.8750 250° West 326 375 12,300 -1,500 Descending FlightAware
05:39PM 42.4950 -86.9660 250° West 310 357 10,600 -1,680 Descending FlightAware
05:40PM 42.4770 -87.0340 250° West 296 341 10,000 -780 Descending FlightAware
05:40PM 42.4650 -87.0750 248° West 281 323 9,800 -360 Descending FlightAware
05:41PM 42.4530 -87.1200 250° West 264 304 9,700 -240 Descending FlightAware
05:41PM 42.4420 -87.1580 249° West 258 297 9,600 -420 Descending FlightAware
05:41PM 42.4360 -87.1820 251° West 237 273 9,400 -840 Descending FlightAware
05:42PM 42.4270 -87.2150 250° West 229 264 9,100 -600 Descending FlightAware
05:42PM 42.4180 -87.2480 250° West 227 261 8,900 -240 Descending FlightAware
05:43PM 42.4080 -87.2860 250° West 228 262 8,900  Level FlightAware
05:43PM 42.3930 -87.3130 233° Southwest 233 268 8,900 -300 Level FlightAware
05:43PM 42.3760 -87.3190 195° South 244 281 8,700 -840 Descending FlightAware
05:44PM 42.3520 -87.3160 175° South 247 284 8,400 -900 Descending FlightAware
05:44PM 42.3220 -87.3100 172° South 244 281 8,000 -1,020 Descending FlightAware
05:45PM 42.2890 -87.3040 172° South 241 277 7,500 -1,080 Descending FlightAware
05:45PM 42.2570 -87.2990 173° South 238 274 7,000 -1,080 Descending FlightAware
05:46PM 42.2310 -87.2940 172° South 235 270 6,600 -900 Descending FlightAware
05:46PM 42.2000 -87.2880 172° South 233 268 6,200 -840 Descending FlightAware
05:46PM 42.1690 -87.2830 173° South 228 262 5,800 -960 Descending FlightAware
05:47PM 42.1530 -87.2800 172° South 229 264 5,500 -1,020 Descending FlightAware
05:47PM 42.1250 -87.2750 172° South 232 267 5,100 -660 Descending FlightAware
05:48PM 42.0930 -87.2690 172° South 265 305 4,900 -300 Descending FlightAware
05:48PM 42.0670 -87.2660 175° South 270 311 4,900  Level FlightAware
05:49PM 42.0260 -87.2760 190° South 268 308 4,900  Level FlightAware
05:49PM 42.0010 -87.2920 205° Southwest 262 302 4,900  Level FlightAware
05:49PM 41.9930 -87.3070 234° Southwest 260 299 4,900  Level FlightAware
05:50PM 41.9770 -87.3540 245° Southwest 260 299 4,900  Level FlightAware
05:50PM 41.9680 -87.3980 255° West 262 302 4,900  Level FlightAware
05:51PM 41.9690 -87.4440 272° West 265 305 4,900  Level FlightAware
05:51PM 41.9690 -87.4850 270° West 266 306 4,900  Level FlightAware
05:51PM 41.9690 -87.5220 270° West 265 305 4,900 -120 Level FlightAware
05:52PM 41.9690 -87.5770 270° West 269 310 4,800 -720 Descending FlightAware
05:52PM 41.9690 -87.6190 270° West 255 293 4,300 -1,440 Descending FlightAware
05:53PM 41.9690 -87.6580 270° West 226 260 3,600 -1,440 Descending FlightAware
05:53PM 41.9690 -87.6790 270° West 210 242 3,300 -1,020 Descending FlightAware
05:54PM 41.9690 -87.7190 270° West 186 214 2,800 -960 Descending FlightAware
05:54PM 41.9690 -87.7610 270° West 176 203 2,200 -840 Descending FlightAware
05:55PM 41.9690 -87.7910 270° West 156 180 1,900 -780 Descending FlightAware
05:55PM 41.9690 -87.8310 270° West 136 157 1,300 -780 Descending FlightAware
05:56PM 41.9690 -87.8530 270° West 135 155 1,000 -660 Descending FlightAware
05:56PM 41.9690 -87.8770 270° West 139 160 700 -420 Descending FlightAware
05:57PM 41.9690 -87.9000 270° West 139 160 600 -240 Descending FlightAware
06:04PM 41.9667 -87.9000 180° South  Level FlightAware Approximate